sensor_id;sensor_type;location;lat;lon;timestamp;P1;durP1;ratioP1;P2;durP2;ratioP2
24157;SDS011;12316;50.904;4.200;2023-03-01T00:01:31;12.27;;;8.77;;
24157;SDS011;12316;50.904;4.200;2023-03-01T00:03:57;10.90;;;8.93;;
24157;SDS011;12316;50.904;4.200;2023-03-01T00:06:23;13.75;;;8.77;;
24157;SDS011;12316;50.904;4.200;2023-03-01T00:08:50;12.55;;;8.65;;
24157;SDS011;12316;50.904;4.200;2023-03-01T00:11:26;12.98;;;8.25;;
24157;SDS011;12316;50.904;4.200;2023-03-01T00:13:56;11.77;;;8.32;;
24157;SDS011;12316;50.904;4.200;2023-03-01T00:16:25;12.00;;;9.07;;
24157;SDS011;12316;50.904;4.200;2023-03-01T00:18:53;12.95;;;8.48;;
24157;SDS011;12316;50.904;4.200;2023-03-01T00:21:20;10.45;;;8.20;;
24157;SDS011;12316;50.904;4.200;2023-03-01T00:23:47;13.48;;;8.35;;
24157;SDS011;12316;50.904;4.200;2023-03-01T00:26:14;11.07;;;8.52;;
24157;SDS011;12316;50.904;4.200;2023-03-01T00:28:40;10.73;;;8.65;;
24157;SDS011;12316;50.904;4.200;2023-03-01T00:31:08;12.45;;;8.73;;
24157;SDS011;12316;50.904;4.200;2023-03-01T00:33:37;10.73;;;8.27;;
24157;SDS011;12316;50.904;4.200;2023-03-01T00:36:03;10.90;;;8.25;;
24157;SDS011;12316;50.904;4.200;2023-03-01T00:38:29;11.20;;;8.25;;
24157;SDS011;12316;50.904;4.200;2023-03-01T00:40:55;11.80;;;8.43;;
24157;SDS011;12316;50.904;4.200;2023-03-01T00:43:27;12.95;;;8.63;;
24157;SDS011;12316;50.904;4.200;2023-03-01T00:45:53;12.52;;;8.35;;
24157;SDS011;12316;50.904;4.200;2023-03-01T00:48:19;10.68;;;8.57;;
24157;SDS011;12316;50.904;4.200;2023-03-01T00:50:45;12.50;;;8.52;;
24157;SDS011;12316;50.904;4.200;2023-03-01T00:53:10;12.50;;;8.50;;
24157;SDS011;12316;50.904;4.200;2023-03-01T00:55:36;15.02;;;8.23;;
24157;SDS011;12316;50.904;4.200;2023-03-01T00:58:01;10.20;;;8.32;;
24157;SDS011;12316;50.904;4.200;2023-03-01T01:00:27;11.63;;;8.13;;
24157;SDS011;12316;50.904;4.200;2023-03-01T01:02:53;13.20;;;8.40;;
24157;SDS011;12316;50.904;4.200;2023-03-01T01:05:19;10.18;;;7.97;;
24157;SDS011;12316;50.904;4.200;2023-03-01T01:07:45;11.98;;;9.02;;
24157;SDS011;12316;50.904;4.200;2023-03-01T01:10:11;12.82;;;8.90;;
24157;SDS011;12316;50.904;4.200;2023-03-01T01:12:41;11.48;;;8.48;;
24157;SDS011;12316;50.904;4.200;2023-03-01T01:15:08;10.90;;;8.40;;
24157;SDS011;12316;50.904;4.200;2023-03-01T01:17:37;11.45;;;7.97;;
24157;SDS011;12316;50.904;4.200;2023-03-01T01:20:03;11.73;;;8.43;;
24157;SDS011;12316;50.904;4.200;2023-03-01T01:22:28;13.50;;;9.13;;
24157;SDS011;12316;50.904;4.200;2023-03-01T01:24:54;11.45;;;8.30;;
24157;SDS011;12316;50.904;4.200;2023-03-01T01:27:20;11.07;;;8.20;;
24157;SDS011;12316;50.904;4.200;2023-03-01T01:29:45;14.65;;;8.35;;
24157;SDS011;12316;50.904;4.200;2023-03-01T01:32:11;13.02;;;8.52;;
24157;SDS011;12316;50.904;4.200;2023-03-01T01:34:36;14.63;;;8.63;;
24157;SDS011;12316;50.904;4.200;2023-03-01T01:37:02;12.23;;;8.70;;
24157;SDS011;12316;50.904;4.200;2023-03-01T01:39:28;12.43;;;8.38;;
24157;SDS011;12316;50.904;4.200;2023-03-01T01:41:54;11.07;;;8.32;;
24157;SDS011;12316;50.904;4.200;2023-03-01T01:49:36;13.82;;;8.50;;
24157;SDS011;12316;50.904;4.200;2023-03-01T01:52:08;10.37;;;6.47;;
24157;SDS011;12316;50.904;4.200;2023-03-01T01:57:07;12.23;;;8.55;;
24157;SDS011;12316;50.904;4.200;2023-03-01T01:59:37;13.10;;;9.00;;
24157;SDS011;12316;50.904;4.200;2023-03-01T02:02:04;13.38;;;8.75;;
24157;SDS011;12316;50.904;4.200;2023-03-01T02:04:30;11.77;;;8.45;;
24157;SDS011;12316;50.904;4.200;2023-03-01T02:07:05;11.82;;;8.70;;
24157;SDS011;12316;50.904;4.200;2023-03-01T02:09:39;12.68;;;8.73;;
24157;SDS011;12316;50.904;4.200;2023-03-01T02:12:05;12.15;;;8.15;;
24157;SDS011;12316;50.904;4.200;2023-03-01T02:14:31;10.63;;;8.05;;
24157;SDS011;12316;50.904;4.200;2023-03-01T02:16:57;12.02;;;8.48;;
24157;SDS011;12316;50.904;4.200;2023-03-01T02:22:50;13.02;;;8.65;;
24157;SDS011;12316;50.904;4.200;2023-03-01T02:24:59;11.63;;;8.70;;
24157;SDS011;12316;50.904;4.200;2023-03-01T02:30:35;11.13;;;9.18;;
24157;SDS011;12316;50.904;4.200;2023-03-01T02:33:01;12.68;;;8.80;;
24157;SDS011;12316;50.904;4.200;2023-03-01T02:35:32;12.65;;;9.10;;
24157;SDS011;12316;50.904;4.200;2023-03-01T02:38:01;12.13;;;9.20;;
24157;SDS011;12316;50.904;4.200;2023-03-01T02:40:31;12.85;;;9.13;;
24157;SDS011;12316;50.904;4.200;2023-03-01T02:42:58;13.32;;;9.48;;
24157;SDS011;12316;50.904;4.200;2023-03-01T02:45:25;15.68;;;8.77;;
24157;SDS011;12316;50.904;4.200;2023-03-01T02:47:55;11.93;;;9.45;;
24157;SDS011;12316;50.904;4.200;2023-03-01T02:53:01;12.82;;;8.95;;
24157;SDS011;12316;50.904;4.200;2023-03-01T02:55:37;11.70;;;8.90;;
24157;SDS011;12316;50.904;4.200;2023-03-01T02:58:03;21.00;;;9.50;;
24157;SDS011;12316;50.904;4.200;2023-03-01T03:00:39;12.43;;;9.15;;
24157;SDS011;12316;50.904;4.200;2023-03-01T03:03:10;11.18;;;9.07;;
24157;SDS011;12316;50.904;4.200;2023-03-01T03:05:38;13.35;;;9.05;;
24157;SDS011;12316;50.904;4.200;2023-03-01T03:08:04;12.85;;;9.32;;
24157;SDS011;12316;50.904;4.200;2023-03-01T03:10:33;13.20;;;9.20;;
24157;SDS011;12316;50.904;4.200;2023-03-01T03:13:02;13.13;;;9.10;;
24157;SDS011;12316;50.904;4.200;2023-03-01T03:15:29;11.88;;;8.95;;
24157;SDS011;12316;50.904;4.200;2023-03-01T03:17:56;12.35;;;9.05;;
24157;SDS011;12316;50.904;4.200;2023-03-01T03:20:24;13.68;;;9.52;;
24157;SDS011;12316;50.904;4.200;2023-03-01T03:22:52;12.02;;;8.93;;
24157;SDS011;12316;50.904;4.200;2023-03-01T03:25:19;13.82;;;9.45;;
24157;SDS011;12316;50.904;4.200;2023-03-01T03:27:47;14.32;;;9.60;;
24157;SDS011;12316;50.904;4.200;2023-03-01T03:30:15;13.02;;;9.60;;
24157;SDS011;12316;50.904;4.200;2023-03-01T03:32:44;14.18;;;9.70;;
24157;SDS011;12316;50.904;4.200;2023-03-01T03:35:18;16.75;;;9.95;;
24157;SDS011;12316;50.904;4.200;2023-03-01T03:40:28;12.50;;;9.10;;
24157;SDS011;12316;50.904;4.200;2023-03-01T03:42:57;15.93;;;9.77;;
24157;SDS011;12316;50.904;4.200;2023-03-01T03:45:22;13.30;;;9.57;;
24157;SDS011;12316;50.904;4.200;2023-03-01T03:47:48;13.43;;;10.48;;
24157;SDS011;12316;50.904;4.200;2023-03-01T03:50:15;13.98;;;9.73;;
24157;SDS011;12316;50.904;4.200;2023-03-01T03:52:42;16.90;;;10.15;;
24157;SDS011;12316;50.904;4.200;2023-03-01T03:55:08;15.40;;;10.25;;
24157;SDS011;12316;50.904;4.200;2023-03-01T03:57:39;11.95;;;9.68;;
24157;SDS011;12316;50.904;4.200;2023-03-01T04:00:06;12.43;;;9.70;;
24157;SDS011;12316;50.904;4.200;2023-03-01T04:02:40;15.52;;;10.05;;
24157;SDS011;12316;50.904;4.200;2023-03-01T04:05:07;16.55;;;10.55;;
24157;SDS011;12316;50.904;4.200;2023-03-01T04:07:35;14.30;;;10.40;;
24157;SDS011;12316;50.904;4.200;2023-03-01T04:10:04;15.23;;;10.52;;
24157;SDS011;12316;50.904;4.200;2023-03-01T04:12:32;14.52;;;9.77;;
24157;SDS011;12316;50.904;4.200;2023-03-01T04:14:59;12.73;;;9.88;;
24157;SDS011;12316;50.904;4.200;2023-03-01T04:17:25;16.30;;;9.90;;
24157;SDS011;12316;50.904;4.200;2023-03-01T04:19:51;14.43;;;9.82;;
24157;SDS011;12316;50.904;4.200;2023-03-01T04:22:16;13.13;;;9.63;;
24157;SDS011;12316;50.904;4.200;2023-03-01T04:24:43;14.68;;;10.15;;
24157;SDS011;12316;50.904;4.200;2023-03-01T04:27:09;13.55;;;9.50;;
24157;SDS011;12316;50.904;4.200;2023-03-01T04:29:35;14.32;;;10.02;;
24157;SDS011;12316;50.904;4.200;2023-03-01T04:32:01;13.10;;;9.68;;
24157;SDS011;12316;50.904;4.200;2023-03-01T04:34:28;16.52;;;10.20;;
24157;SDS011;12316;50.904;4.200;2023-03-01T04:36:54;16.33;;;9.73;;
24157;SDS011;12316;50.904;4.200;2023-03-01T04:39:20;13.95;;;9.98;;
24157;SDS011;12316;50.904;4.200;2023-03-01T04:41:46;13.57;;;9.80;;
24157;SDS011;12316;50.904;4.200;2023-03-01T04:44:11;15.30;;;9.30;;
24157;SDS011;12316;50.904;4.200;2023-03-01T04:46:37;15.65;;;9.73;;
24157;SDS011;12316;50.904;4.200;2023-03-01T04:49:03;15.35;;;9.98;;
24157;SDS011;12316;50.904;4.200;2023-03-01T04:51:30;13.98;;;9.98;;
24157;SDS011;12316;50.904;4.200;2023-03-01T04:53:57;12.82;;;9.98;;
24157;SDS011;12316;50.904;4.200;2023-03-01T04:56:23;13.32;;;9.60;;
24157;SDS011;12316;50.904;4.200;2023-03-01T04:58:48;15.07;;;10.13;;
24157;SDS011;12316;50.904;4.200;2023-03-01T05:01:16;14.25;;;10.05;;
24157;SDS011;12316;50.904;4.200;2023-03-01T05:03:44;13.32;;;9.60;;
24157;SDS011;12316;50.904;4.200;2023-03-01T05:06:15;12.98;;;9.77;;
24157;SDS011;12316;50.904;4.200;2023-03-01T05:08:41;14.13;;;9.75;;
24157;SDS011;12316;50.904;4.200;2023-03-01T05:11:08;15.18;;;10.82;;
24157;SDS011;12316;50.904;4.200;2023-03-01T05:13:34;12.27;;;9.30;;
24157;SDS011;12316;50.904;4.200;2023-03-01T05:16:03;15.70;;;10.77;;
24157;SDS011;12316;50.904;4.200;2023-03-01T05:18:31;14.50;;;10.65;;
24157;SDS011;12316;50.904;4.200;2023-03-01T05:21:02;16.15;;;10.07;;
24157;SDS011;12316;50.904;4.200;2023-03-01T05:23:36;15.10;;;10.60;;
24157;SDS011;12316;50.904;4.200;2023-03-01T05:26:02;16.27;;;10.48;;
24157;SDS011;12316;50.904;4.200;2023-03-01T05:28:29;14.07;;;10.43;;
24157;SDS011;12316;50.904;4.200;2023-03-01T05:30:55;15.90;;;10.45;;
24157;SDS011;12316;50.904;4.200;2023-03-01T05:33:21;16.13;;;10.40;;
24157;SDS011;12316;50.904;4.200;2023-03-01T05:35:47;15.82;;;9.93;;
24157;SDS011;12316;50.904;4.200;2023-03-01T05:38:14;13.48;;;9.70;;
24157;SDS011;12316;50.904;4.200;2023-03-01T05:40:41;14.15;;;10.13;;
24157;SDS011;12316;50.904;4.200;2023-03-01T05:43:08;14.65;;;10.43;;
24157;SDS011;12316;50.904;4.200;2023-03-01T05:45:35;13.95;;;10.23;;
24157;SDS011;12316;50.904;4.200;2023-03-01T05:48:02;15.32;;;10.30;;
24157;SDS011;12316;50.904;4.200;2023-03-01T05:50:31;13.55;;;10.07;;
24157;SDS011;12316;50.904;4.200;2023-03-01T05:53:00;12.27;;;9.75;;
24157;SDS011;12316;50.904;4.200;2023-03-01T05:55:27;15.45;;;10.57;;
24157;SDS011;12316;50.904;4.200;2023-03-01T05:57:54;14.93;;;10.70;;
24157;SDS011;12316;50.904;4.200;2023-03-01T06:00:20;14.73;;;10.68;;
24157;SDS011;12316;50.904;4.200;2023-03-01T06:02:49;15.75;;;9.70;;
24157;SDS011;12316;50.904;4.200;2023-03-01T06:05:16;18.67;;;11.38;;
24157;SDS011;12316;50.904;4.200;2023-03-01T06:07:42;15.52;;;10.15;;
24157;SDS011;12316;50.904;4.200;2023-03-01T06:10:09;15.45;;;10.55;;
24157;SDS011;12316;50.904;4.200;2023-03-01T06:12:36;13.10;;;9.35;;
24157;SDS011;12316;50.904;4.200;2023-03-01T06:15:04;15.32;;;10.45;;
24157;SDS011;12316;50.904;4.200;2023-03-01T06:17:31;13.95;;;9.82;;
24157;SDS011;12316;50.904;4.200;2023-03-01T06:20:00;13.75;;;10.05;;
24157;SDS011;12316;50.904;4.200;2023-03-01T06:22:26;19.50;;;10.52;;
24157;SDS011;12316;50.904;4.200;2023-03-01T06:24:52;15.05;;;10.38;;
24157;SDS011;12316;50.904;4.200;2023-03-01T06:27:17;13.05;;;9.45;;
24157;SDS011;12316;50.904;4.200;2023-03-01T06:29:43;13.55;;;9.65;;
24157;SDS011;12316;50.904;4.200;2023-03-01T06:32:09;13.75;;;9.63;;
24157;SDS011;12316;50.904;4.200;2023-03-01T06:34:35;18.85;;;10.70;;
24157;SDS011;12316;50.904;4.200;2023-03-01T06:37:00;14.90;;;9.77;;
24157;SDS011;12316;50.904;4.200;2023-03-01T06:39:30;14.25;;;10.27;;
24157;SDS011;12316;50.904;4.200;2023-03-01T06:41:56;15.82;;;10.77;;
24157;SDS011;12316;50.904;4.200;2023-03-01T06:44:22;14.82;;;10.52;;
24157;SDS011;12316;50.904;4.200;2023-03-01T06:46:48;18.30;;;10.63;;
24157;SDS011;12316;50.904;4.200;2023-03-01T06:49:15;15.10;;;10.77;;
24157;SDS011;12316;50.904;4.200;2023-03-01T06:51:42;17.52;;;11.05;;
24157;SDS011;12316;50.904;4.200;2023-03-01T06:54:08;13.55;;;10.57;;
24157;SDS011;12316;50.904;4.200;2023-03-01T06:56:34;13.70;;;10.32;;
24157;SDS011;12316;50.904;4.200;2023-03-01T06:59:00;15.98;;;10.68;;
24157;SDS011;12316;50.904;4.200;2023-03-01T07:01:27;14.80;;;10.88;;
24157;SDS011;12316;50.904;4.200;2023-03-01T07:03:53;16.60;;;10.48;;
24157;SDS011;12316;50.904;4.200;2023-03-01T07:06:19;13.70;;;10.68;;
24157;SDS011;12316;50.904;4.200;2023-03-01T07:08:45;15.07;;;10.80;;
24157;SDS011;12316;50.904;4.200;2023-03-01T07:11:11;15.43;;;10.48;;
24157;SDS011;12316;50.904;4.200;2023-03-01T07:13:36;16.20;;;10.90;;
24157;SDS011;12316;50.904;4.200;2023-03-01T07:16:02;13.48;;;10.63;;
24157;SDS011;12316;50.904;4.200;2023-03-01T07:18:28;16.80;;;10.23;;
24157;SDS011;12316;50.904;4.200;2023-03-01T07:20:53;14.60;;;10.75;;
24157;SDS011;12316;50.904;4.200;2023-03-01T07:23:19;14.90;;;10.32;;
24157;SDS011;12316;50.904;4.200;2023-03-01T07:25:50;15.18;;;10.10;;
24157;SDS011;12316;50.904;4.200;2023-03-01T07:28:17;14.60;;;10.13;;
24157;SDS011;12316;50.904;4.200;2023-03-01T07:30:42;16.17;;;10.45;;
24157;SDS011;12316;50.904;4.200;2023-03-01T07:33:08;17.38;;;11.25;;
24157;SDS011;12316;50.904;4.200;2023-03-01T07:35:33;17.33;;;11.00;;
24157;SDS011;12316;50.904;4.200;2023-03-01T07:37:59;16.08;;;11.23;;
24157;SDS011;12316;50.904;4.200;2023-03-01T07:40:25;16.83;;;11.20;;
24157;SDS011;12316;50.904;4.200;2023-03-01T07:42:54;16.35;;;10.75;;
24157;SDS011;12316;50.904;4.200;2023-03-01T07:45:24;15.27;;;10.23;;
24157;SDS011;12316;50.904;4.200;2023-03-01T07:47:50;15.27;;;10.63;;
24157;SDS011;12316;50.904;4.200;2023-03-01T07:50:17;17.27;;;10.60;;
24157;SDS011;12316;50.904;4.200;2023-03-01T07:52:44;18.90;;;10.20;;
24157;SDS011;12316;50.904;4.200;2023-03-01T07:55:11;15.70;;;10.48;;
24157;SDS011;12316;50.904;4.200;2023-03-01T07:57:37;13.57;;;10.40;;
24157;SDS011;12316;50.904;4.200;2023-03-01T08:00:03;16.17;;;10.52;;
24157;SDS011;12316;50.904;4.200;2023-03-01T08:02:30;15.98;;;10.23;;
24157;SDS011;12316;50.904;4.200;2023-03-01T08:04:56;14.25;;;9.82;;
24157;SDS011;12316;50.904;4.200;2023-03-01T08:07:21;14.88;;;10.60;;
24157;SDS011;12316;50.904;4.200;2023-03-01T08:09:47;14.80;;;10.52;;
24157;SDS011;12316;50.904;4.200;2023-03-01T08:12:12;16.23;;;10.55;;
24157;SDS011;12316;50.904;4.200;2023-03-01T08:14:38;15.27;;;10.55;;
24157;SDS011;12316;50.904;4.200;2023-03-01T08:17:04;16.15;;;10.35;;
24157;SDS011;12316;50.904;4.200;2023-03-01T08:19:30;17.75;;;10.80;;
24157;SDS011;12316;50.904;4.200;2023-03-01T08:21:55;14.63;;;10.57;;
24157;SDS011;12316;50.904;4.200;2023-03-01T08:24:23;15.77;;;11.15;;
24157;SDS011;12316;50.904;4.200;2023-03-01T08:26:48;15.38;;;11.00;;
24157;SDS011;12316;50.904;4.200;2023-03-01T08:29:14;15.93;;;10.65;;
24157;SDS011;12316;50.904;4.200;2023-03-01T08:31:40;16.88;;;10.60;;
24157;SDS011;12316;50.904;4.200;2023-03-01T08:34:10;17.95;;;10.43;;
24157;SDS011;12316;50.904;4.200;2023-03-01T08:36:39;11.52;;;8.15;;
24157;SDS011;12316;50.904;4.200;2023-03-01T08:39:07;15.98;;;9.65;;
24157;SDS011;12316;50.904;4.200;2023-03-01T08:41:34;18.85;;;10.35;;
24157;SDS011;12316;50.904;4.200;2023-03-01T08:44:00;15.43;;;10.70;;
24157;SDS011;12316;50.904;4.200;2023-03-01T08:46:30;15.35;;;10.93;;
24157;SDS011;12316;50.904;4.200;2023-03-01T08:48:57;13.60;;;10.45;;
24157;SDS011;12316;50.904;4.200;2023-03-01T08:51:23;14.95;;;10.70;;
24157;SDS011;12316;50.904;4.200;2023-03-01T08:53:49;16.60;;;10.65;;
24157;SDS011;12316;50.904;4.200;2023-03-01T08:56:15;14.88;;;10.05;;
24157;SDS011;12316;50.904;4.200;2023-03-01T08:58:48;12.95;;;10.43;;
24157;SDS011;12316;50.904;4.200;2023-03-01T09:01:15;15.43;;;10.70;;
24157;SDS011;12316;50.904;4.200;2023-03-01T09:03:42;16.77;;;11.30;;
24157;SDS011;12316;50.904;4.200;2023-03-01T09:06:09;17.75;;;11.27;;
24157;SDS011;12316;50.904;4.200;2023-03-01T09:08:39;16.40;;;11.10;;
24157;SDS011;12316;50.904;4.200;2023-03-01T09:11:07;15.65;;;10.52;;
24157;SDS011;12316;50.904;4.200;2023-03-01T09:13:34;12.80;;;9.88;;
24157;SDS011;12316;50.904;4.200;2023-03-01T09:16:00;17.95;;;10.50;;
24157;SDS011;12316;50.904;4.200;2023-03-01T09:18:28;14.50;;;10.23;;
24157;SDS011;12316;50.904;4.200;2023-03-01T09:21:00;15.15;;;10.20;;
24157;SDS011;12316;50.904;4.200;2023-03-01T09:23:32;13.40;;;9.90;;
24157;SDS011;12316;50.904;4.200;2023-03-01T09:26:02;16.90;;;10.27;;
24157;SDS011;12316;50.904;4.200;2023-03-01T09:28:28;13.10;;;10.18;;
24157;SDS011;12316;50.904;4.200;2023-03-01T09:30:57;13.30;;;10.43;;
24157;SDS011;12316;50.904;4.200;2023-03-01T09:33:24;16.00;;;10.55;;
24157;SDS011;12316;50.904;4.200;2023-03-01T09:35:55;13.90;;;10.10;;
24157;SDS011;12316;50.904;4.200;2023-03-01T09:38:23;12.60;;;8.30;;
24157;SDS011;12316;50.904;4.200;2023-03-01T09:40:49;13.93;;;10.05;;
24157;SDS011;12316;50.904;4.200;2023-03-01T09:43:18;15.05;;;9.88;;
24157;SDS011;12316;50.904;4.200;2023-03-01T09:45:46;13.48;;;9.90;;
24157;SDS011;12316;50.904;4.200;2023-03-01T09:48:19;15.25;;;9.82;;
24157;SDS011;12316;50.904;4.200;2023-03-01T09:50:48;14.80;;;10.15;;
24157;SDS011;12316;50.904;4.200;2023-03-01T09:55:48;13.60;;;10.82;;
24157;SDS011;12316;50.904;4.200;2023-03-01T10:00:56;15.10;;;9.98;;
24157;SDS011;12316;50.904;4.200;2023-03-01T10:03:34;13.20;;;10.70;;
24157;SDS011;12316;50.904;4.200;2023-03-01T10:09:24;16.00;;;10.73;;
24157;SDS011;12316;50.904;4.200;2023-03-01T10:11:32;13.32;;;10.20;;
24157;SDS011;12316;50.904;4.200;2023-03-01T10:16:56;15.02;;;10.80;;
24157;SDS011;12316;50.904;4.200;2023-03-01T10:21:57;14.55;;;10.38;;
24157;SDS011;12316;50.904;4.200;2023-03-01T10:24:28;16.83;;;11.38;;
24157;SDS011;12316;50.904;4.200;2023-03-01T10:27:00;16.25;;;10.98;;
24157;SDS011;12316;50.904;4.200;2023-03-01T10:29:41;15.05;;;10.55;;
24157;SDS011;12316;50.904;4.200;2023-03-01T10:32:20;15.35;;;10.82;;
24157;SDS011;12316;50.904;4.200;2023-03-01T10:34:46;17.13;;;10.55;;
24157;SDS011;12316;50.904;4.200;2023-03-01T10:37:13;14.20;;;10.43;;
24157;SDS011;12316;50.904;4.200;2023-03-01T10:42:28;16.42;;;10.35;;
24157;SDS011;12316;50.904;4.200;2023-03-01T10:45:14;14.20;;;10.27;;
24157;SDS011;12316;50.904;4.200;2023-03-01T10:48:14;12.07;;;9.82;;
24157;SDS011;12316;50.904;4.200;2023-03-01T10:56:13;16.55;;;10.10;;
24157;SDS011;12316;50.904;4.200;2023-03-01T10:58:40;12.32;;;9.43;;
24157;SDS011;12316;50.904;4.200;2023-03-01T11:03:52;13.88;;;9.43;;
24157;SDS011;12316;50.904;4.200;2023-03-01T11:06:31;12.27;;;9.82;;
24157;SDS011;12316;50.904;4.200;2023-03-01T11:09:13;16.52;;;10.40;;
24157;SDS011;12316;50.904;4.200;2023-03-01T11:11:51;13.65;;;9.88;;
24157;SDS011;12316;50.904;4.200;2023-03-01T11:14:22;13.32;;;8.77;;
24157;SDS011;12316;50.904;4.200;2023-03-01T11:16:59;11.80;;;9.02;;
24157;SDS011;12316;50.904;4.200;2023-03-01T11:19:31;15.20;;;9.55;;
24157;SDS011;12316;50.904;4.200;2023-03-01T11:22:13;11.98;;;8.95;;
24157;SDS011;12316;50.904;4.200;2023-03-01T11:24:46;14.30;;;9.43;;
24157;SDS011;12316;50.904;4.200;2023-03-01T11:27:17;14.75;;;9.85;;
24157;SDS011;12316;50.904;4.200;2023-03-01T11:29:53;15.82;;;10.02;;
24157;SDS011;12316;50.904;4.200;2023-03-01T11:32:24;13.50;;;9.02;;
24157;SDS011;12316;50.904;4.200;2023-03-01T11:34:59;13.70;;;9.63;;
24157;SDS011;12316;50.904;4.200;2023-03-01T11:40:22;12.73;;;9.48;;
24157;SDS011;12316;50.904;4.200;2023-03-01T11:45:35;13.15;;;9.52;;
24157;SDS011;12316;50.904;4.200;2023-03-01T11:51:01;12.65;;;9.52;;
24157;SDS011;12316;50.904;4.200;2023-03-01T11:53:34;13.63;;;9.25;;
24157;SDS011;12316;50.904;4.200;2023-03-01T12:17:58;13.55;;;9.68;;
24157;SDS011;12316;50.904;4.200;2023-03-01T12:20:45;13.57;;;9.45;;
24157;SDS011;12316;50.904;4.200;2023-03-01T12:23:43;11.95;;;8.57;;
24157;SDS011;12316;50.904;4.200;2023-03-01T12:37:04;15.63;;;9.63;;
24157;SDS011;12316;50.904;4.200;2023-03-01T12:39:55;13.38;;;9.70;;
24157;SDS011;12316;50.904;4.200;2023-03-01T12:42:40;10.65;;;8.93;;
24157;SDS011;12316;50.904;4.200;2023-03-01T12:51:02;12.20;;;9.05;;
24157;SDS011;12316;50.904;4.200;2023-03-01T12:53:40;13.30;;;9.23;;
24157;SDS011;12316;50.904;4.200;2023-03-01T12:56:09;13.43;;;9.00;;
24157;SDS011;12316;50.904;4.200;2023-03-01T13:04:07;12.68;;;8.80;;
24157;SDS011;12316;50.904;4.200;2023-03-01T13:12:01;10.57;;;8.93;;
24157;SDS011;12316;50.904;4.200;2023-03-01T13:16:58;11.80;;;9.00;;
24157;SDS011;12316;50.904;4.200;2023-03-01T13:19:24;11.10;;;7.95;;
24157;SDS011;12316;50.904;4.200;2023-03-01T13:21:54;12.30;;;8.40;;
24157;SDS011;12316;50.904;4.200;2023-03-01T13:24:27;10.80;;;8.23;;
24157;SDS011;12316;50.904;4.200;2023-03-01T13:29:52;13.82;;;8.48;;
24157;SDS011;12316;50.904;4.200;2023-03-01T13:32:34;11.25;;;8.15;;
24157;SDS011;12316;50.904;4.200;2023-03-01T13:37:40;12.70;;;8.88;;
24157;SDS011;12316;50.904;4.200;2023-03-01T13:42:43;10.10;;;8.00;;
24157;SDS011;12316;50.904;4.200;2023-03-01T13:45:16;11.13;;;8.57;;
24157;SDS011;12316;50.904;4.200;2023-03-01T13:47:48;12.20;;;8.60;;
24157;SDS011;12316;50.904;4.200;2023-03-01T13:50:20;11.15;;;8.13;;
24157;SDS011;12316;50.904;4.200;2023-03-01T13:53:02;10.05;;;8.02;;
24157;SDS011;12316;50.904;4.200;2023-03-01T13:55:34;15.43;;;8.23;;
24157;SDS011;12316;50.904;4.200;2023-03-01T13:58:04;10.00;;;8.20;;
24157;SDS011;12316;50.904;4.200;2023-03-01T14:03:30;10.35;;;8.10;;
24157;SDS011;12316;50.904;4.200;2023-03-01T14:05:59;11.40;;;8.57;;
24157;SDS011;12316;50.904;4.200;2023-03-01T14:08:40;12.23;;;9.00;;
24157;SDS011;12316;50.904;4.200;2023-03-01T14:16:33;10.93;;;7.80;;
24157;SDS011;12316;50.904;4.200;2023-03-01T14:21:41;9.93;;;8.00;;
24157;SDS011;12316;50.904;4.200;2023-03-01T14:24:14;11.10;;;8.10;;
24157;SDS011;12316;50.904;4.200;2023-03-01T14:26:45;10.13;;;8.05;;
24157;SDS011;12316;50.904;4.200;2023-03-01T14:29:25;13.40;;;8.55;;
24157;SDS011;12316;50.904;4.200;2023-03-01T14:31:53;9.60;;;8.02;;
24157;SDS011;12316;50.904;4.200;2023-03-01T14:34:22;10.32;;;8.63;;
24157;SDS011;12316;50.904;4.200;2023-03-01T14:36:49;12.75;;;8.63;;
24157;SDS011;12316;50.904;4.200;2023-03-01T14:39:24;12.13;;;9.05;;
24157;SDS011;12316;50.904;4.200;2023-03-01T14:41:51;11.73;;;8.20;;
24157;SDS011;12316;50.904;4.200;2023-03-01T14:44:21;14.02;;;9.02;;
24157;SDS011;12316;50.904;4.200;2023-03-01T14:46:51;11.10;;;7.90;;
24157;SDS011;12316;50.904;4.200;2023-03-01T14:49:23;13.38;;;9.80;;
24157;SDS011;12316;50.904;4.200;2023-03-01T14:51:53;11.80;;;7.85;;
24157;SDS011;12316;50.904;4.200;2023-03-01T14:56:53;10.00;;;8.20;;
24157;SDS011;12316;50.904;4.200;2023-03-01T14:59:24;13.20;;;8.95;;
24157;SDS011;12316;50.904;4.200;2023-03-01T15:01:50;10.93;;;7.90;;
24157;SDS011;12316;50.904;4.200;2023-03-01T15:04:18;10.93;;;8.40;;
24157;SDS011;12316;50.904;4.200;2023-03-01T15:06:46;10.00;;;7.50;;
24157;SDS011;12316;50.904;4.200;2023-03-01T15:09:15;10.80;;;7.93;;
24157;SDS011;12316;50.904;4.200;2023-03-01T15:11:42;10.10;;;7.50;;
24157;SDS011;12316;50.904;4.200;2023-03-01T15:14:27;12.18;;;8.27;;
24157;SDS011;12316;50.904;4.200;2023-03-01T15:17:03;12.52;;;8.35;;
24157;SDS011;12316;50.904;4.200;2023-03-01T15:19:29;10.07;;;8.38;;
24157;SDS011;12316;50.904;4.200;2023-03-01T15:21:55;11.52;;;7.82;;
24157;SDS011;12316;50.904;4.200;2023-03-01T15:24:25;11.70;;;8.48;;
24157;SDS011;12316;50.904;4.200;2023-03-01T15:26:53;11.95;;;7.97;;
24157;SDS011;12316;50.904;4.200;2023-03-01T15:29:27;12.25;;;8.07;;
24157;SDS011;12316;50.904;4.200;2023-03-01T15:32:00;10.05;;;8.63;;
24157;SDS011;12316;50.904;4.200;2023-03-01T15:34:29;11.93;;;8.65;;
24157;SDS011;12316;50.904;4.200;2023-03-01T15:36:57;13.27;;;8.48;;
24157;SDS011;12316;50.904;4.200;2023-03-01T15:42:10;13.65;;;8.93;;
24157;SDS011;12316;50.904;4.200;2023-03-01T15:44:36;11.70;;;9.18;;
24157;SDS011;12316;50.904;4.200;2023-03-01T15:50:25;11.90;;;9.35;;
24157;SDS011;12316;50.904;4.200;2023-03-01T15:52:53;12.15;;;9.00;;
24157;SDS011;12316;50.904;4.200;2023-03-01T15:55:24;12.32;;;9.05;;
24157;SDS011;12316;50.904;4.200;2023-03-01T15:57:57;12.23;;;8.80;;
24157;SDS011;12316;50.904;4.200;2023-03-01T16:00:31;12.32;;;9.27;;
24157;SDS011;12316;50.904;4.200;2023-03-01T16:02:57;11.10;;;8.60;;
24157;SDS011;12316;50.904;4.200;2023-03-01T16:07:51;17.60;;;11.10;;
24157;SDS011;12316;50.904;4.200;2023-03-01T16:10:17;12.73;;;9.40;;
24157;SDS011;12316;50.904;4.200;2023-03-01T16:12:44;12.48;;;9.43;;
24157;SDS011;12316;50.904;4.200;2023-03-01T16:17:51;13.82;;;9.13;;
24157;SDS011;12316;50.904;4.200;2023-03-01T16:20:17;12.57;;;9.25;;
24157;SDS011;12316;50.904;4.200;2023-03-01T16:22:43;12.57;;;9.57;;
24157;SDS011;12316;50.904;4.200;2023-03-01T16:25:11;13.10;;;9.48;;
24157;SDS011;12316;50.904;4.200;2023-03-01T16:27:38;14.60;;;9.13;;
24157;SDS011;12316;50.904;4.200;2023-03-01T16:30:06;13.77;;;9.57;;
24157;SDS011;12316;50.904;4.200;2023-03-01T16:32:32;10.95;;;9.02;;
24157;SDS011;12316;50.904;4.200;2023-03-01T16:35:02;13.73;;;9.30;;
24157;SDS011;12316;50.904;4.200;2023-03-01T16:37:27;12.55;;;9.23;;
24157;SDS011;12316;50.904;4.200;2023-03-01T16:39:58;13.60;;;9.63;;
24157;SDS011;12316;50.904;4.200;2023-03-01T16:42:24;14.02;;;8.88;;
24157;SDS011;12316;50.904;4.200;2023-03-01T16:44:54;13.57;;;8.80;;
24157;SDS011;12316;50.904;4.200;2023-03-01T16:47:20;14.15;;;9.18;;
24157;SDS011;12316;50.904;4.200;2023-03-01T16:49:46;15.23;;;9.60;;
24157;SDS011;12316;50.904;4.200;2023-03-01T16:52:11;16.90;;;12.15;;
24157;SDS011;12316;50.904;4.200;2023-03-01T16:54:37;16.45;;;12.85;;
24157;SDS011;12316;50.904;4.200;2023-03-01T16:57:03;13.35;;;8.65;;